Flight Track Log - Related Links

Times and Time Zones

All times are in EDT time to prevent confusion due to time zone crossing. See the CSN3016 flight status page for this flight to view local times or setup timezone preferences in your user account.


Time Position Orientation Groundspeed Altitude Reporting Facility
EDT Latitude Longitude Course Direction KTS MPH feet Rate Location/Type
Fri 06:03:32 AM 25.0950 121.2430 45° Northeast 152 175 1,100  Level FlightAware ADS-B
Fri 06:04:02 AM 25.1090 121.2610 49° Northeast 178 205 1,800 1,300 Climbing FlightAware ADS-B
Fri 06:04:32 AM 25.1260 121.2840 51° Northeast 214 246 2,400 1,855 Climbing FlightAware ADS-B
Fri 06:04:57 AM 25.1460 121.3030 41° Northeast 221 254 3,500 2,400 Climbing FlightAware ADS-B
Fri 06:05:27 AM 25.1730 121.3240 35° Northeast 246 283 4,600 2,300 Climbing FlightAware ADS-B
Fri 06:05:57 AM 25.2030 121.3470 35° Northeast 261 300 5,800 2,400 Climbing FlightAware ADS-B
Fri 06:06:22 AM 25.2280 121.3660 35° Northeast 272 313 6,800 2,250 Climbing FlightAware ADS-B
Fri 06:06:37 AM 25.2430 121.3780 36° Northeast 282 325 7,300 2,250 Climbing FlightAware ADS-B
Fri 06:07:02 AM 25.2720 121.4000 34° Northeast 296 341 8,300 2,520 Climbing FlightAware ADS-B
Fri 06:07:27 AM 25.3000 121.4220 35° Northeast 301 346 9,400 2,143 Climbing FlightAware ADS-B
Fri 06:08:12 AM 25.3520 121.4620 35° Northeast 338 389 10,800 1,906 Climbing FlightAware ADS-B
Fri 06:08:52 AM 25.4100 121.5070 35° Northeast 370 426 12,100 2,329 Climbing FlightAware ADS-B
Fri 06:09:37 AM 25.4730 121.5560 35° Northeast 384 442 14,100 2,800 Climbing FlightAware ADS-B
Fri 06:10:22 AM 25.5390 121.6080 35° Northeast 394 453 16,300 2,612 Climbing FlightAware ADS-B
Fri 06:11:02 AM 25.6010 121.6560 35° Northeast 411 473 17,800 2,325 Climbing FlightAware ADS-B
Fri 06:11:42 AM 25.6630 121.7050 35° Northeast 422 486 19,400 2,471 Climbing FlightAware ADS-B
Fri 06:12:27 AM 25.7380 121.7630 35° Northeast 431 496 21,300 2,329 Climbing FlightAware ADS-B
Fri 06:13:07 AM 25.8040 121.8150 35° Northeast 439 505 22,700 1,976 Climbing FlightAware ADS-B
Fri 06:13:52 AM 25.8760 121.8730 36° Northeast 452 520 24,100 1,624 Climbing FlightAware ADS-B
Fri 06:14:32 AM 25.9430 121.9270 36° Northeast 461 531 25,000 675 Climbing FlightAware ADS-B
Fri 06:15:12 AM 26.0160 121.9870 36° Northeast 457 526 25,000  Level FlightAware ADS-B
Fri 06:15:57 AM 26.0920 122.0470 35° Northeast 454 522 25,000  Level FlightAware ADS-B
Fri 06:16:37 AM 26.1620 122.1000 34° Northeast 452 520 25,000  Level FlightAware ADS-B
Fri 06:17:22 AM 26.2410 122.1620 35° Northeast 453 521 25,000  Level FlightAware ADS-B
Fri 06:18:02 AM 26.3060 122.2140 36° Northeast 451 519 25,000  Level FlightAware ADS-B
Fri 06:18:47 AM 26.3850 122.2770 36° Northeast 450 518 25,000  Level FlightAware ADS-B
Fri 06:19:27 AM 26.4530 122.3290 34° Northeast 451 519 25,000  Level FlightAware ADS-B
Fri 06:20:07 AM 26.5220 122.3830 35° Northeast 451 519 25,000  Level FlightAware ADS-B
Fri 06:20:52 AM 26.5930 122.4400 36° Northeast 452 520 25,000  Level FlightAware ADS-B
Fri 06:21:22 AM 26.6470 122.4820 35° Northeast 452 520 25,000  Level FlightAware ADS-B
Fri 06:22:07 AM 26.7160 122.5370 35° Northeast 452 520 25,000  Level FlightAware ADS-B
Fri 06:22:57 AM 26.8130 122.6140 35° Northeast 452 520 25,000  Level FlightAware ADS-B
Fri 06:23:47 AM 26.8950 122.6790 35° Northeast 450 518 25,000  Level FlightAware ADS-B
Fri 06:24:32 AM 26.9650 122.7340 35° Northeast 450 518 25,000  Level FlightAware ADS-B
Fri 06:25:12 AM 27.0230 122.7800 35° Northeast 450 518 25,000  Level FlightAware ADS-B
Fri 06:25:52 AM 27.0800 122.8250 35° Northeast 450 518 25,000  Level FlightAware ADS-B
Fri 06:26:27 AM 27.1920 122.8230 359° North 435 501 25,000  Level FlightAware ADS-B
Fri 06:27:07 AM 27.2660 122.8310 North 435 501 25,000  Level FlightAware ADS-B
Fri 06:27:47 AM 27.3340 122.8370 North 435 501 25,000  Level FlightAware ADS-B
Fri 06:28:27 AM 27.4020 122.8440 North 435 501 25,000  Level FlightAware ADS-B
Fri 06:29:12 AM 27.4390 122.7050 287° West 396 456 25,000  Level FlightAware ADS-B
Fri 06:29:57 AM 27.4390 122.6180 270° West 398 458 25,000  Level FlightAware ADS-B
Fri 06:30:37 AM 27.4390 122.5310 270° West 398 458 25,000 -150 Level FlightAware ADS-B
Fri 06:31:17 AM 27.4390 122.4480 270° West 397 457 24,800 -282 Descending FlightAware ADS-B
Fri 06:32:02 AM 27.4510 122.3520 278° West 397 457 24,600 -141 Descending FlightAware ADS-B
Fri 06:32:42 AM 27.4650 122.2710 281° West 396 456 24,600  Level FlightAware ADS-B
Fri 06:33:22 AM 27.4790 122.1940 282° West 397 457 24,600  Level FlightAware ADS-B
Fri 06:34:07 AM 27.4950 122.1030 281° West 399 459 24,600  Level FlightAware ADS-B
Fri 06:34:47 AM 27.5080 122.0270 281° West 399 459 24,600  Level FlightAware ADS-B
Fri 06:35:27 AM 27.5210 121.9480 281° West 400 460 24,600  Level FlightAware ADS-B
Fri 06:36:12 AM 27.5390 121.8470 281° West 400 460 24,600  Level FlightAware ADS-B
Fri 06:36:52 AM 27.5530 121.7670 281° West 400 460 24,600  Level FlightAware ADS-B
Fri 06:37:32 AM 27.5670 121.6830 281° West 399 459 24,600  Level FlightAware ADS-B
Fri 06:38:17 AM 27.5800 121.6000 280° West 399 459 24,600  Level FlightAware ADS-B
Fri 06:39:02 AM 27.5990 121.4980 282° West 397 457 24,600  Level FlightAware ADS-B
Fri 06:39:37 AM 27.6120 121.4260 282° West 397 457 24,600  Level FlightAware ADS-B
Fri 06:40:22 AM 27.6280 121.3350 281° West 398 458 24,600  Level FlightAware ADS-B
Fri 06:41:07 AM 27.6440 121.2450 281° West 400 460 24,600  Level FlightAware ADS-B
Fri 06:41:47 AM 27.6580 121.1630 281° West 400 460 24,600  Level FlightAware ADS-B
Fri 06:42:27 AM 27.6720 121.0810 281° West 400 460 24,600  Level FlightAware ADS-B
Fri 06:43:12 AM 27.6880 120.9890 281° West 400 460 24,600  Level FlightAware ADS-B
Fri 06:43:52 AM 27.7030 120.9070 282° West 400 460 24,600  Level FlightAware ADS-B
Fri 06:44:37 AM 27.7180 120.8150 280° West 399 459 24,600  Level FlightAware ADS-B
Fri 06:45:12 AM 27.7310 120.7430 282° West 399 459 24,600  Level FlightAware ADS-B
Fri 06:45:57 AM 27.7450 120.6570 280° West 399 459 24,600  Level FlightAware ADS-B
Fri 06:46:42 AM 27.7730 120.5620 288° West 399 459 24,600  Level FlightAware ADS-B
Fri 06:47:22 AM 27.7990 120.4840 291° West 398 458 24,600  Level FlightAware ADS-B
Fri 06:48:07 AM 27.8280 120.3940 290° West 398 458 24,600  Level FlightAware ADS-B
Fri 06:49:32 AM 27.8780 120.2420 290° West 396 456 24,600  Level FlightAware ADS-B
Fri 06:50:12 AM 27.9080 120.1560 292° West 398 458 24,600  Level FlightAware ADS-B
Fri 06:50:52 AM 27.9350 120.0720 290° West 399 459 24,600  Level FlightAware ADS-B
Fri 06:51:37 AM 27.9630 119.9890 291° West 400 460 24,600  Level FlightAware ADS-B
Fri 06:52:17 AM 27.9890 119.9070 290° West 402 463 24,600  Level FlightAware ADS-B
Fri 06:52:52 AM 28.0120 119.8400 291° West 401 461 24,600  Level FlightAware ADS-B
Fri 06:53:42 AM 28.0450 119.7370 290° West 399 459 24,600  Level FlightAware ADS-B
Fri 06:54:37 AM 28.0800 119.6320 291° West 400 460 24,600  Level FlightAware ADS-B
Fri 06:55:12 AM 28.1170 119.5750 306° West 404 465 24,600  Level FlightAware ADS-B
Fri 06:56:02 AM 28.2260 119.5680 357° North 432 497 24,600  Level FlightAware ADS-B
Fri 06:56:57 AM 28.3300 119.5730 North 427 491 24,600  Level FlightAware ADS-B
Fri 06:57:37 AM 28.3970 119.5760 North 427 491 24,600  Level FlightAware ADS-B
Fri 06:58:17 AM 28.4640 119.5790 North 427 491 24,600  Level FlightAware ADS-B
Fri 06:58:57 AM 28.5310 119.5810 North 427 491 24,600  Level FlightAware ADS-B
Fri 06:59:47 AM 28.6150 119.5850 North 427 491 24,600  Level FlightAware ADS-B
Fri 07:00:27 AM 28.6820 119.5870 North 427 491 24,600 -34 Level FlightAware ADS-B
Fri 07:03:00 AM 28.7496 119.4256 296° West  Level Estimated
Fri 07:04:00 AM 28.7760 119.3622 295° West  Level Estimated
Fri 07:05:00 AM 28.8024 119.2988 295° West  Level Estimated
Fri 07:06:00 AM 28.8288 119.2353 295° West  Level Estimated
Fri 07:07:00 AM 28.8551 119.1719 295° West  Level Estimated
Fri 07:08:00 AM 28.8815 119.1084 295° West  Level Estimated
Fri 07:09:00 AM 28.9077 119.0448 295° West  Level Estimated
Fri 07:10:00 AM 28.9340 118.9813 295° West  Level Estimated
Fri 07:11:00 AM 28.9602 118.9177 295° West  Level Estimated
Fri 07:12:00 AM 28.9864 118.8540 295° West  Level Estimated
Fri 07:13:00 AM 29.0126 118.7904 295° West  Level Estimated
Fri 07:14:00 AM 29.0387 118.7267 295° West  Level Estimated
Fri 07:15:00 AM 29.0649 118.6630 295° West  Level Estimated
Fri 07:16:00 AM 29.0909 118.5992 295° West  Level Estimated
Fri 07:17:00 AM 29.1170 118.5354 295° West  Level Estimated
Fri 07:18:00 AM 29.1430 118.4716 295° West  Level Estimated
Fri 07:19:00 AM 29.1690 118.4077 295° West  Level Estimated
Fri 07:20:00 AM 29.1950 118.3438 295° West  Level Estimated
Fri 07:21:00 AM 29.2209 118.2799 295° West  Level Estimated
Fri 07:22:00 AM 29.2468 118.2160 295° West  Level Estimated
Fri 07:23:00 AM 29.2727 118.1520 295° West  Level Estimated
Fri 07:24:00 AM 29.2985 118.0880 295° West  Level Estimated
Fri 07:25:00 AM 29.3243 118.0239 295° West  Level Estimated
Fri 07:26:00 AM 29.3501 117.9598 295° West  Level Estimated
Fri 07:27:00 AM 29.3758 117.8957 295° West  Level Estimated
Fri 07:28:00 AM 29.4016 117.8316 295° West  Level Estimated
Fri 07:28:52 AM 31.6180 119.0680 295° West 379 436 23,600  Level FlightAware ADS-B
Fri 07:29:00 AM 29.4272 117.7674 295° West  Level Estimated
Fri 07:29:42 AM 31.6780 119.0150 323° Northwest 379 436 23,600  Level FlightAware ADS-B
Fri 07:30:22 AM 31.7250 118.9730 323° Northwest 379 436 23,600  Level FlightAware ADS-B
Fri 07:31:02 AM 31.7730 118.9300 323° Northwest 379 436 23,600  Level FlightAware ADS-B
Fri 07:31:42 AM 31.8200 118.8880 323° Northwest 379 436 23,600  Level FlightAware ADS-B
Fri 07:32:22 AM 31.8680 118.8460 323° Northwest 379 436 23,600  Level FlightAware ADS-B
Fri 07:35:00 AM 31.8284 118.6610 256° West  Level Estimated
Fri 07:36:00 AM 31.8133 118.5909 256° West  Level Estimated
Fri 07:37:00 AM 31.7982 118.5207 256° West  Level Estimated
Fri 07:38:00 AM 31.7830 118.4505 256° West  Level Estimated
Fri 07:39:00 AM 31.7678 118.3804 256° West  Level Estimated
Fri 07:40:00 AM 31.7525 118.3103 256° West  Level Estimated
Fri 07:41:00 AM 31.7372 118.2402 256° West  Level Estimated
Fri 07:42:00 AM 31.7219 118.1702 256° West  Level Estimated
Fri 07:43:00 AM 31.7065 118.1002 256° West  Level Estimated
Fri 07:44:00 AM 31.6911 118.0302 256° West  Level Estimated
Fri 07:45:00 AM 31.6757 117.9602 255° West  Level Estimated
Fri 07:46:00 AM 31.6602 117.8902 255° West  Level Estimated
Fri 07:47:00 AM 31.6447 117.8203 255° West  Level Estimated
Fri 07:48:00 AM 31.6291 117.7504 255° West  Level Estimated
Fri 07:49:00 AM 31.6135 117.6805 255° West  Level Estimated
Fri 07:50:00 AM 31.5979 117.6106 255° West  Level Estimated
Fri 07:51:00 AM 31.5822 117.5408 255° West  Level Estimated
Fri 07:52:00 AM 31.5665 117.4709 255° West  Level Estimated
Fri 07:53:00 AM 31.5508 117.4011 255° West  Level Estimated
Fri 07:54:00 AM 31.5350 117.3314 255° West  Level Estimated
Fri 07:55:00 AM 31.5191 117.2616 255° West  Level Estimated
Fri 07:56:00 AM 31.5033 117.1919 255° West  Level Estimated
Fri 07:57:00 AM 31.4874 117.1222 255° West  Level Estimated
Fri 07:58:00 AM 31.4714 117.0525 255° West  Level Estimated
Fri 07:59:00 AM 31.4555 116.9829 255° West  Level Estimated
Fri 08:00:00 AM 31.4394 116.9132 255° West  Level Estimated
Fri 08:01:00 AM 31.4234 116.8436 255° West  Level Estimated
Fri 08:02:00 AM 31.4073 116.7740 255° West  Level Estimated
Fri 08:03:00 AM 31.3912 116.7045 255° West  Level Estimated
Fri 08:04:00 AM 31.3750 116.6349 255° West  Level Estimated
Fri 08:05:00 AM 31.3588 116.5654 255° West  Level Estimated
Fri 08:06:00 AM 31.3426 116.4959 255° West  Level Estimated
Fri 08:07:00 AM 31.3263 116.4265 255° West  Level Estimated
Fri 08:08:00 AM 31.3100 116.3570 255° West  Level Estimated
Fri 08:09:00 AM 31.2936 116.2876 255° West  Level Estimated
Fri 08:10:00 AM 31.2772 116.2182 255° West  Level Estimated
Fri 08:11:00 AM 31.2608 116.1489 255° West  Level Estimated
Fri 08:12:00 AM 31.2444 116.0795 254° West  Level Estimated
Fri 08:13:00 AM 31.2278 116.0102 254° West  Level Estimated
Fri 08:14:00 AM 31.2113 115.9409 254° West  Level Estimated
Fri 08:15:00 AM 31.1947 115.8716 254° West  Level Estimated
Fri 08:16:00 AM 31.1781 115.8024 254° West  Level Estimated
Fri 08:17:00 AM 31.1615 115.7332 254° West  Level Estimated
Fri 08:18:00 AM 31.1448 115.6640 254° West  Level Estimated
Fri 08:19:00 AM 31.1281 115.5948 254° West  Level Estimated
Fri 08:20:00 AM 31.1113 115.5257 254° West  Level Estimated
Fri 08:21:00 AM 31.0945 115.4565 254° West  Level Estimated
Fri 08:22:00 AM 31.0777 115.3874 254° West  Level Estimated
Fri 08:23:00 AM 31.0608 115.3184 254° West  Level Estimated
Fri 08:24:00 AM 31.0439 115.2493 254° West  Level Estimated
Fri 08:25:00 AM 31.0270 115.1803 254° West  Level Estimated
Fri 08:26:00 AM 31.0100 115.1113 254° West  Level Estimated
Fri 08:27:00 AM 30.9930 115.0423 254° West  Level Estimated
Fri 08:28:00 AM 30.9759 114.9733 254° West  Level Estimated
Fri 08:29:00 AM 30.9588 114.9044 254° West  Level Estimated
Fri 08:30:00 AM 30.9417 114.8355 254° West  Level Estimated
Fri 08:31:00 AM 30.9245 114.7666 254° West  Level Estimated

Login

Don't have an account? Register now (free) for customized features, flight alerts, and more!